sensor_id;sensor_type;location;lat;lon;timestamp;temperature;humidity
5011;DHT22;2524;54.364;10.072;2022-12-07T00:01:45;3.00;99.90
5011;DHT22;2524;54.364;10.072;2022-12-07T00:04:13;3.00;99.90
5011;DHT22;2524;54.364;10.072;2022-12-07T00:06:42;3.00;99.90
5011;DHT22;2524;54.364;10.072;2022-12-07T00:09:12;3.00;99.90
5011;DHT22;2524;54.364;10.072;2022-12-07T00:11:38;3.10;99.90
5011;DHT22;2524;54.364;10.072;2022-12-07T00:14:06;3.10;99.90
5011;DHT22;2524;54.364;10.072;2022-12-07T00:16:34;3.10;99.90
5011;DHT22;2524;54.364;10.072;2022-12-07T00:19:00;3.10;99.90
5011;DHT22;2524;54.364;10.072;2022-12-07T00:21:31;3.10;99.90
5011;DHT22;2524;54.364;10.072;2022-12-07T00:23:58;3.10;99.90
5011;DHT22;2524;54.364;10.072;2022-12-07T00:26:26;3.10;99.90
5011;DHT22;2524;54.364;10.072;2022-12-07T00:28:55;3.10;99.90
5011;DHT22;2524;54.364;10.072;2022-12-07T00:31:23;3.10;99.90
5011;DHT22;2524;54.364;10.072;2022-12-07T00:33:49;3.10;99.90
5011;DHT22;2524;54.364;10.072;2022-12-07T00:36:18;3.20;99.90
5011;DHT22;2524;54.364;10.072;2022-12-07T00:38:43;3.20;99.90
5011;DHT22;2524;54.364;10.072;2022-12-07T00:41:18;3.20;99.90
5011;DHT22;2524;54.364;10.072;2022-12-07T00:43:45;3.20;99.90
5011;DHT22;2524;54.364;10.072;2022-12-07T00:46:12;3.20;99.90
5011;DHT22;2524;54.364;10.072;2022-12-07T00:48:37;3.20;99.90
5011;DHT22;2524;54.364;10.072;2022-12-07T00:51:04;3.20;99.90
5011;DHT22;2524;54.364;10.072;2022-12-07T00:53:30;3.20;99.90
5011;DHT22;2524;54.364;10.072;2022-12-07T00:56:04;3.20;99.90
5011;DHT22;2524;54.364;10.072;2022-12-07T00:58:29;3.20;99.90
5011;DHT22;2524;54.364;10.072;2022-12-07T01:01:00;3.20;99.90
5011;DHT22;2524;54.364;10.072;2022-12-07T01:03:26;3.20;99.90
5011;DHT22;2524;54.364;10.072;2022-12-07T01:05:53;3.20;99.90
5011;DHT22;2524;54.364;10.072;2022-12-07T01:08:20;3.20;99.90
5011;DHT22;2524;54.364;10.072;2022-12-07T01:10:46;3.20;99.90
5011;DHT22;2524;54.364;10.072;2022-12-07T01:13:12;3.20;99.90
5011;DHT22;2524;54.364;10.072;2022-12-07T01:15:44;3.20;99.90
5011;DHT22;2524;54.364;10.072;2022-12-07T01:18:10;3.20;99.90
5011;DHT22;2524;54.364;10.072;2022-12-07T01:20:36;3.20;99.90
5011;DHT22;2524;54.364;10.072;2022-12-07T01:23:02;3.20;99.90
5011;DHT22;2524;54.364;10.072;2022-12-07T01:25:28;3.20;99.90
5011;DHT22;2524;54.364;10.072;2022-12-07T01:27:54;3.20;99.90
5011;DHT22;2524;54.364;10.072;2022-12-07T01:30:19;3.10;99.90
5011;DHT22;2524;54.364;10.072;2022-12-07T01:32:45;3.10;99.90
5011;DHT22;2524;54.364;10.072;2022-12-07T01:35:11;3.20;99.90
5011;DHT22;2524;54.364;10.072;2022-12-07T01:37:37;3.20;99.90
5011;DHT22;2524;54.364;10.072;2022-12-07T01:40:05;3.20;99.90
5011;DHT22;2524;54.364;10.072;2022-12-07T01:42:31;3.20;99.90
5011;DHT22;2524;54.364;10.072;2022-12-07T01:48:00;3.20;99.90
5011;DHT22;2524;54.364;10.072;2022-12-07T01:50:28;3.20;99.90
5011;DHT22;2524;54.364;10.072;2022-12-07T01:52:58;3.20;99.90
5011;DHT22;2524;54.364;10.072;2022-12-07T01:55:25;3.20;99.90
5011;DHT22;2524;54.364;10.072;2022-12-07T01:57:53;3.20;99.90
5011;DHT22;2524;54.364;10.072;2022-12-07T02:00:19;3.20;99.90
5011;DHT22;2524;54.364;10.072;2022-12-07T02:02:51;3.10;99.90
5011;DHT22;2524;54.364;10.072;2022-12-07T02:05:18;3.20;99.90
5011;DHT22;2524;54.364;10.072;2022-12-07T02:07:46;3.20;99.90
5011;DHT22;2524;54.364;10.072;2022-12-07T02:12:38;3.10;99.90
5011;DHT22;2524;54.364;10.072;2022-12-07T02:15:04;3.20;99.90
5011;DHT22;2524;54.364;10.072;2022-12-07T02:25:41;3.10;99.90
5011;DHT22;2524;54.364;10.072;2022-12-07T02:28:31;3.10;99.90
5011;DHT22;2524;54.364;10.072;2022-12-07T02:31:03;3.10;99.90
5011;DHT22;2524;54.364;10.072;2022-12-07T02:33:45;3.10;99.90
5011;DHT22;2524;54.364;10.072;2022-12-07T02:36:33;3.10;99.90
5011;DHT22;2524;54.364;10.072;2022-12-07T02:41:40;3.00;99.90
5011;DHT22;2524;54.364;10.072;2022-12-07T02:44:11;3.00;99.90
5011;DHT22;2524;54.364;10.072;2022-12-07T02:46:42;3.00;99.90
5011;DHT22;2524;54.364;10.072;2022-12-07T02:49:08;3.00;99.90
5011;DHT22;2524;54.364;10.072;2022-12-07T02:51:39;3.00;99.90
5011;DHT22;2524;54.364;10.072;2022-12-07T02:54:17;2.90;99.90
5011;DHT22;2524;54.364;10.072;2022-12-07T03:02:25;2.90;99.90
5011;DHT22;2524;54.364;10.072;2022-12-07T03:07:50;2.90;99.90
5011;DHT22;2524;54.364;10.072;2022-12-07T03:10:32;2.90;99.90
5011;DHT22;2524;54.364;10.072;2022-12-07T03:13:33;2.90;99.90
5011;DHT22;2524;54.364;10.072;2022-12-07T03:18:38;2.90;99.90
5011;DHT22;2524;54.364;10.072;2022-12-07T03:21:10;2.80;99.90
5011;DHT22;2524;54.364;10.072;2022-12-07T03:23:39;2.80;99.90
5011;DHT22;2524;54.364;10.072;2022-12-07T03:26:06;2.80;99.90
5011;DHT22;2524;54.364;10.072;2022-12-07T03:28:37;2.90;99.90
5011;DHT22;2524;54.364;10.072;2022-12-07T03:31:22;2.80;99.90
5011;DHT22;2524;54.364;10.072;2022-12-07T03:36:52;2.90;99.90
5011;DHT22;2524;54.364;10.072;2022-12-07T03:39:28;2.80;99.90
5011;DHT22;2524;54.364;10.072;2022-12-07T03:41:57;2.80;99.90
5011;DHT22;2524;54.364;10.072;2022-12-07T03:44:24;2.80;99.90
5011;DHT22;2524;54.364;10.072;2022-12-07T03:47:14;2.80;99.90
5011;DHT22;2524;54.364;10.072;2022-12-07T03:49:51;2.80;99.90
5011;DHT22;2524;54.364;10.072;2022-12-07T03:52:42;2.80;99.90
5011;DHT22;2524;54.364;10.072;2022-12-07T03:57:40;2.70;99.90
5011;DHT22;2524;54.364;10.072;2022-12-07T04:00:07;2.70;99.90
5011;DHT22;2524;54.364;10.072;2022-12-07T04:02:33;2.70;99.90
5011;DHT22;2524;54.364;10.072;2022-12-07T04:05:00;2.70;99.90
5011;DHT22;2524;54.364;10.072;2022-12-07T04:07:26;2.70;99.90
5011;DHT22;2524;54.364;10.072;2022-12-07T04:09:51;2.70;99.90
5011;DHT22;2524;54.364;10.072;2022-12-07T04:12:20;2.70;99.90
5011;DHT22;2524;54.364;10.072;2022-12-07T04:14:46;2.70;99.90
5011;DHT22;2524;54.364;10.072;2022-12-07T04:17:11;2.70;99.90
5011;DHT22;2524;54.364;10.072;2022-12-07T04:19:37;2.70;99.90
5011;DHT22;2524;54.364;10.072;2022-12-07T04:22:03;2.70;99.90
5011;DHT22;2524;54.364;10.072;2022-12-07T04:24:29;2.70;99.90
5011;DHT22;2524;54.364;10.072;2022-12-07T04:26:56;2.70;99.90
5011;DHT22;2524;54.364;10.072;2022-12-07T04:29:22;2.70;99.90
5011;DHT22;2524;54.364;10.072;2022-12-07T04:31:48;2.70;99.90
5011;DHT22;2524;54.364;10.072;2022-12-07T04:34:15;2.70;99.90
5011;DHT22;2524;54.364;10.072;2022-12-07T04:36:41;2.60;99.90
5011;DHT22;2524;54.364;10.072;2022-12-07T04:39:09;2.60;99.90
5011;DHT22;2524;54.364;10.072;2022-12-07T04:41:38;2.60;99.90
5011;DHT22;2524;54.364;10.072;2022-12-07T04:44:04;2.60;99.90
5011;DHT22;2524;54.364;10.072;2022-12-07T04:46:33;2.60;99.90
5011;DHT22;2524;54.364;10.072;2022-12-07T04:48:58;2.60;99.90
5011;DHT22;2524;54.364;10.072;2022-12-07T04:51:28;2.50;99.90
5011;DHT22;2524;54.364;10.072;2022-12-07T04:53:55;2.60;99.90
5011;DHT22;2524;54.364;10.072;2022-12-07T04:56:21;2.50;99.90
5011;DHT22;2524;54.364;10.072;2022-12-07T04:58:48;2.50;99.90
5011;DHT22;2524;54.364;10.072;2022-12-07T05:01:15;2.60;99.90
5011;DHT22;2524;54.364;10.072;2022-12-07T05:03:41;2.60;99.90
5011;DHT22;2524;54.364;10.072;2022-12-07T05:06:07;2.50;99.90
5011;DHT22;2524;54.364;10.072;2022-12-07T05:08:33;2.40;99.90
5011;DHT22;2524;54.364;10.072;2022-12-07T05:10:59;2.40;99.90
5011;DHT22;2524;54.364;10.072;2022-12-07T05:13:25;2.40;99.90
5011;DHT22;2524;54.364;10.072;2022-12-07T05:15:51;2.40;99.90
5011;DHT22;2524;54.364;10.072;2022-12-07T05:18:16;2.40;99.90
5011;DHT22;2524;54.364;10.072;2022-12-07T05:20:42;2.30;99.90
5011;DHT22;2524;54.364;10.072;2022-12-07T05:23:09;2.30;99.90
5011;DHT22;2524;54.364;10.072;2022-12-07T05:25:35;2.30;99.90
5011;DHT22;2524;54.364;10.072;2022-12-07T05:28:01;2.30;99.90
5011;DHT22;2524;54.364;10.072;2022-12-07T05:30:27;2.30;99.90
5011;DHT22;2524;54.364;10.072;2022-12-07T05:32:52;2.30;99.90
5011;DHT22;2524;54.364;10.072;2022-12-07T05:35:18;2.30;99.90
5011;DHT22;2524;54.364;10.072;2022-12-07T05:37:44;2.30;99.90
5011;DHT22;2524;54.364;10.072;2022-12-07T05:40:11;2.30;99.90
5011;DHT22;2524;54.364;10.072;2022-12-07T05:42:37;2.30;99.90
5011;DHT22;2524;54.364;10.072;2022-12-07T05:45:03;2.30;99.90
5011;DHT22;2524;54.364;10.072;2022-12-07T05:47:29;2.30;99.90
5011;DHT22;2524;54.364;10.072;2022-12-07T05:49:54;2.30;99.90
5011;DHT22;2524;54.364;10.072;2022-12-07T05:52:20;2.30;99.90
5011;DHT22;2524;54.364;10.072;2022-12-07T05:54:46;2.30;99.90
5011;DHT22;2524;54.364;10.072;2022-12-07T05:57:11;2.20;99.90
5011;DHT22;2524;54.364;10.072;2022-12-07T05:59:37;2.20;99.90
5011;DHT22;2524;54.364;10.072;2022-12-07T06:02:08;2.20;99.90
5011;DHT22;2524;54.364;10.072;2022-12-07T06:04:37;2.20;99.90
5011;DHT22;2524;54.364;10.072;2022-12-07T06:07:03;2.20;99.90
5011;DHT22;2524;54.364;10.072;2022-12-07T06:09:29;2.20;99.90
5011;DHT22;2524;54.364;10.072;2022-12-07T06:11:56;2.20;99.90
5011;DHT22;2524;54.364;10.072;2022-12-07T06:14:40;2.20;99.90
5011;DHT22;2524;54.364;10.072;2022-12-07T06:17:06;2.20;99.90
5011;DHT22;2524;54.364;10.072;2022-12-07T06:19:32;2.20;99.90
5011;DHT22;2524;54.364;10.072;2022-12-07T06:21:58;2.20;99.90
5011;DHT22;2524;54.364;10.072;2022-12-07T06:24:24;2.10;99.90
5011;DHT22;2524;54.364;10.072;2022-12-07T06:26:50;2.10;99.90
5011;DHT22;2524;54.364;10.072;2022-12-07T06:29:16;2.10;99.90
5011;DHT22;2524;54.364;10.072;2022-12-07T06:31:42;2.10;99.90
5011;DHT22;2524;54.364;10.072;2022-12-07T06:34:13;2.10;99.90
5011;DHT22;2524;54.364;10.072;2022-12-07T06:36:39;2.10;99.90
5011;DHT22;2524;54.364;10.072;2022-12-07T06:39:06;2.10;99.90
5011;DHT22;2524;54.364;10.072;2022-12-07T06:41:33;2.10;99.90
5011;DHT22;2524;54.364;10.072;2022-12-07T06:43:58;2.10;99.90
5011;DHT22;2524;54.364;10.072;2022-12-07T06:46:24;2.00;99.90
5011;DHT22;2524;54.364;10.072;2022-12-07T06:48:50;2.00;99.90
5011;DHT22;2524;54.364;10.072;2022-12-07T06:51:15;2.00;99.90
5011;DHT22;2524;54.364;10.072;2022-12-07T06:53:41;2.00;99.90
5011;DHT22;2524;54.364;10.072;2022-12-07T06:56:07;2.00;99.90
5011;DHT22;2524;54.364;10.072;2022-12-07T06:58:32;2.00;99.90
5011;DHT22;2524;54.364;10.072;2022-12-07T07:00:58;2.00;99.90
5011;DHT22;2524;54.364;10.072;2022-12-07T07:03:23;2.00;99.90
5011;DHT22;2524;54.364;10.072;2022-12-07T07:05:49;2.00;99.90
5011;DHT22;2524;54.364;10.072;2022-12-07T07:08:15;2.00;99.90
5011;DHT22;2524;54.364;10.072;2022-12-07T07:10:41;2.00;99.90
5011;DHT22;2524;54.364;10.072;2022-12-07T07:13:07;2.00;99.90
5011;DHT22;2524;54.364;10.072;2022-12-07T07:15:33;2.00;99.90
5011;DHT22;2524;54.364;10.072;2022-12-07T07:17:59;2.00;99.90
5011;DHT22;2524;54.364;10.072;2022-12-07T07:20:25;2.00;99.90
5011;DHT22;2524;54.364;10.072;2022-12-07T07:22:54;2.00;99.90
5011;DHT22;2524;54.364;10.072;2022-12-07T07:25:19;2.00;99.90
5011;DHT22;2524;54.364;10.072;2022-12-07T07:27:45;2.00;99.90
5011;DHT22;2524;54.364;10.072;2022-12-07T07:30:11;2.00;99.90
5011;DHT22;2524;54.364;10.072;2022-12-07T07:32:36;2.00;99.90
5011;DHT22;2524;54.364;10.072;2022-12-07T07:35:02;2.00;99.90
5011;DHT22;2524;54.364;10.072;2022-12-07T07:37:28;2.00;99.90
5011;DHT22;2524;54.364;10.072;2022-12-07T07:39:54;2.00;99.90
5011;DHT22;2524;54.364;10.072;2022-12-07T07:42:19;2.00;99.90
5011;DHT22;2524;54.364;10.072;2022-12-07T07:44:45;2.00;99.90
5011;DHT22;2524;54.364;10.072;2022-12-07T07:47:10;2.00;99.90
5011;DHT22;2524;54.364;10.072;2022-12-07T07:49:36;1.90;99.90
5011;DHT22;2524;54.364;10.072;2022-12-07T07:52:02;1.90;99.90
5011;DHT22;2524;54.364;10.072;2022-12-07T07:54:27;2.00;99.90
5011;DHT22;2524;54.364;10.072;2022-12-07T07:56:53;1.90;99.90
5011;DHT22;2524;54.364;10.072;2022-12-07T07:59:18;2.00;99.90
5011;DHT22;2524;54.364;10.072;2022-12-07T08:01:44;2.00;99.90
5011;DHT22;2524;54.364;10.072;2022-12-07T08:04:10;2.00;99.90
5011;DHT22;2524;54.364;10.072;2022-12-07T08:06:36;2.00;99.90
5011;DHT22;2524;54.364;10.072;2022-12-07T08:09:02;2.00;99.90
5011;DHT22;2524;54.364;10.072;2022-12-07T08:11:28;2.00;99.90
5011;DHT22;2524;54.364;10.072;2022-12-07T08:13:53;2.00;99.90
5011;DHT22;2524;54.364;10.072;2022-12-07T08:16:19;1.90;99.90
5011;DHT22;2524;54.364;10.072;2022-12-07T08:18:45;2.00;99.90
5011;DHT22;2524;54.364;10.072;2022-12-07T08:21:13;2.00;99.90
5011;DHT22;2524;54.364;10.072;2022-12-07T08:23:39;2.00;99.90
5011;DHT22;2524;54.364;10.072;2022-12-07T08:26:12;2.00;99.90
5011;DHT22;2524;54.364;10.072;2022-12-07T08:28:38;2.00;99.90
5011;DHT22;2524;54.364;10.072;2022-12-07T08:31:06;2.00;99.90
5011;DHT22;2524;54.364;10.072;2022-12-07T08:33:33;2.10;99.90
5011;DHT22;2524;54.364;10.072;2022-12-07T08:36:04;2.10;99.90
5011;DHT22;2524;54.364;10.072;2022-12-07T08:38:30;2.00;99.90
5011;DHT22;2524;54.364;10.072;2022-12-07T08:40:57;2.10;99.90
5011;DHT22;2524;54.364;10.072;2022-12-07T08:43:23;2.10;99.90
5011;DHT22;2524;54.364;10.072;2022-12-07T08:48:47;2.10;99.90
5011;DHT22;2524;54.364;10.072;2022-12-07T08:51:15;2.10;99.90
5011;DHT22;2524;54.364;10.072;2022-12-07T08:53:41;2.10;99.90
5011;DHT22;2524;54.364;10.072;2022-12-07T08:56:08;2.10;99.90
5011;DHT22;2524;54.364;10.072;2022-12-07T08:58:35;2.10;99.90
5011;DHT22;2524;54.364;10.072;2022-12-07T09:01:01;2.10;99.90
5011;DHT22;2524;54.364;10.072;2022-12-07T09:03:26;2.10;99.90
5011;DHT22;2524;54.364;10.072;2022-12-07T09:05:53;2.10;99.90
5011;DHT22;2524;54.364;10.072;2022-12-07T09:08:20;2.10;99.90
5011;DHT22;2524;54.364;10.072;2022-12-07T09:10:46;2.10;99.90
5011;DHT22;2524;54.364;10.072;2022-12-07T09:13:13;2.20;99.90
5011;DHT22;2524;54.364;10.072;2022-12-07T09:15:39;2.20;99.90
5011;DHT22;2524;54.364;10.072;2022-12-07T09:18:05;2.20;99.90
5011;DHT22;2524;54.364;10.072;2022-12-07T09:20:30;2.20;99.90
5011;DHT22;2524;54.364;10.072;2022-12-07T09:22:56;2.20;99.90
5011;DHT22;2524;54.364;10.072;2022-12-07T09:25:22;2.20;99.90
5011;DHT22;2524;54.364;10.072;2022-12-07T09:27:47;2.30;99.90
5011;DHT22;2524;54.364;10.072;2022-12-07T09:30:13;2.30;99.90
5011;DHT22;2524;54.364;10.072;2022-12-07T09:32:39;2.30;99.90
5011;DHT22;2524;54.364;10.072;2022-12-07T09:35:04;2.30;99.90
5011;DHT22;2524;54.364;10.072;2022-12-07T09:37:30;2.30;99.90
5011;DHT22;2524;54.364;10.072;2022-12-07T09:40:00;2.30;99.90
5011;DHT22;2524;54.364;10.072;2022-12-07T09:42:30;2.30;99.90
5011;DHT22;2524;54.364;10.072;2022-12-07T09:44:58;2.30;99.90
5011;DHT22;2524;54.364;10.072;2022-12-07T09:47:25;2.30;99.90
5011;DHT22;2524;54.364;10.072;2022-12-07T09:49:51;2.30;99.90
5011;DHT22;2524;54.364;10.072;2022-12-07T09:54:47;2.30;99.90
5011;DHT22;2524;54.364;10.072;2022-12-07T09:57:13;2.30;99.90
5011;DHT22;2524;54.364;10.072;2022-12-07T09:59:39;2.40;99.90
5011;DHT22;2524;54.364;10.072;2022-12-07T10:04:50;2.40;99.90
5011;DHT22;2524;54.364;10.072;2022-12-07T10:07:16;2.40;99.90
5011;DHT22;2524;54.364;10.072;2022-12-07T10:09:42;2.40;99.90
5011;DHT22;2524;54.364;10.072;2022-12-07T10:12:17;2.50;99.90
5011;DHT22;2524;54.364;10.072;2022-12-07T10:18:01;2.40;99.90
5011;DHT22;2524;54.364;10.072;2022-12-07T10:20:48;2.50;99.90
5011;DHT22;2524;54.364;10.072;2022-12-07T10:23:37;2.40;99.90
5011;DHT22;2524;54.364;10.072;2022-12-07T10:26:32;2.50;99.90
5011;DHT22;2524;54.364;10.072;2022-12-07T10:31:44;2.50;99.90
5011;DHT22;2524;54.364;10.072;2022-12-07T10:34:27;2.60;99.90
5011;DHT22;2524;54.364;10.072;2022-12-07T10:37:17;2.50;99.90
5011;DHT22;2524;54.364;10.072;2022-12-07T10:40:00;2.50;99.90
5011;DHT22;2524;54.364;10.072;2022-12-07T10:42:30;2.50;99.90
5011;DHT22;2524;54.364;10.072;2022-12-07T10:45:19;2.60;99.90
5011;DHT22;2524;54.364;10.072;2022-12-07T10:54:17;2.60;99.90
5011;DHT22;2524;54.364;10.072;2022-12-07T11:00:04;2.60;99.90
5011;DHT22;2524;54.364;10.072;2022-12-07T11:08:03;2.70;99.90
5011;DHT22;2524;54.364;10.072;2022-12-07T11:11:16;2.80;99.90
5011;DHT22;2524;54.364;10.072;2022-12-07T11:13:49;2.80;99.90
5011;DHT22;2524;54.364;10.072;2022-12-07T11:19:21;2.90;99.90
5011;DHT22;2524;54.364;10.072;2022-12-07T11:22:20;2.80;99.90
5011;DHT22;2524;54.364;10.072;2022-12-07T11:36:42;2.90;99.90
5011;DHT22;2524;54.364;10.072;2022-12-07T11:39:16;3.00;99.90
5011;DHT22;2524;54.364;10.072;2022-12-07T11:41:48;3.00;99.90
5011;DHT22;2524;54.364;10.072;2022-12-07T11:49:32;3.00;99.90
5011;DHT22;2524;54.364;10.072;2022-12-07T11:52:04;3.00;99.90
5011;DHT22;2524;54.364;10.072;2022-12-07T11:54:36;3.00;99.90
5011;DHT22;2524;54.364;10.072;2022-12-07T11:57:12;3.10;99.90
5011;DHT22;2524;54.364;10.072;2022-12-07T11:59:45;3.10;99.90
5011;DHT22;2524;54.364;10.072;2022-12-07T12:05:16;3.10;99.90
5011;DHT22;2524;54.364;10.072;2022-12-07T12:07:44;3.20;99.90
5011;DHT22;2524;54.364;10.072;2022-12-07T12:10:40;3.10;99.90
5011;DHT22;2524;54.364;10.072;2022-12-07T12:21:59;3.20;99.90
5011;DHT22;2524;54.364;10.072;2022-12-07T12:24:31;3.40;99.90
5011;DHT22;2524;54.364;10.072;2022-12-07T12:27:30;3.30;99.90
5011;DHT22;2524;54.364;10.072;2022-12-07T12:29:59;3.30;99.90
5011;DHT22;2524;54.364;10.072;2022-12-07T12:32:42;3.30;99.90
5011;DHT22;2524;54.364;10.072;2022-12-07T12:35:36;3.30;99.90
5011;DHT22;2524;54.364;10.072;2022-12-07T12:38:25;3.20;99.90
5011;DHT22;2524;54.364;10.072;2022-12-07T12:40:52;3.30;99.90
5011;DHT22;2524;54.364;10.072;2022-12-07T12:43:45;3.20;99.90
5011;DHT22;2524;54.364;10.072;2022-12-07T12:51:52;3.20;99.90
5011;DHT22;2524;54.364;10.072;2022-12-07T12:56:54;3.20;99.90
5011;DHT22;2524;54.364;10.072;2022-12-07T12:59:30;3.20;99.90
5011;DHT22;2524;54.364;10.072;2022-12-07T13:15:56;3.20;99.90
5011;DHT22;2524;54.364;10.072;2022-12-07T13:18:40;3.30;99.90
5011;DHT22;2524;54.364;10.072;2022-12-07T13:29:11;3.30;99.90
5011;DHT22;2524;54.364;10.072;2022-12-07T13:36:55;3.20;99.90
5011;DHT22;2524;54.364;10.072;2022-12-07T13:39:23;3.10;99.90
5011;DHT22;2524;54.364;10.072;2022-12-07T13:41:54;3.10;99.90
5011;DHT22;2524;54.364;10.072;2022-12-07T13:44:21;3.10;99.90
5011;DHT22;2524;54.364;10.072;2022-12-07T13:47:02;3.00;99.90
5011;DHT22;2524;54.364;10.072;2022-12-07T13:49:32;3.00;99.90
5011;DHT22;2524;54.364;10.072;2022-12-07T13:55:18;2.90;99.90
5011;DHT22;2524;54.364;10.072;2022-12-07T13:57:49;2.90;99.90
5011;DHT22;2524;54.364;10.072;2022-12-07T14:00:24;2.80;99.90
5011;DHT22;2524;54.364;10.072;2022-12-07T14:02:57;2.80;99.90
5011;DHT22;2524;54.364;10.072;2022-12-07T14:05:35;2.90;99.90
5011;DHT22;2524;54.364;10.072;2022-12-07T14:16:27;2.70;99.90
5011;DHT22;2524;54.364;10.072;2022-12-07T14:18:54;2.70;99.90
5011;DHT22;2524;54.364;10.072;2022-12-07T14:21:22;2.70;99.90
5011;DHT22;2524;54.364;10.072;2022-12-07T14:26:37;2.60;99.90
5011;DHT22;2524;54.364;10.072;2022-12-07T14:31:52;2.60;99.90
5011;DHT22;2524;54.364;10.072;2022-12-07T14:34:20;2.70;99.90
5011;DHT22;2524;54.364;10.072;2022-12-07T14:36:48;2.60;99.90
5011;DHT22;2524;54.364;10.072;2022-12-07T14:39:14;2.60;99.90
5011;DHT22;2524;54.364;10.072;2022-12-07T14:41:39;2.60;99.90
5011;DHT22;2524;54.364;10.072;2022-12-07T14:44:21;2.50;99.90
5011;DHT22;2524;54.364;10.072;2022-12-07T14:46:49;2.50;99.90
5011;DHT22;2524;54.364;10.072;2022-12-07T14:49:15;2.50;99.90
5011;DHT22;2524;54.364;10.072;2022-12-07T14:51:49;2.70;99.90
5011;DHT22;2524;54.364;10.072;2022-12-07T14:54:19;2.50;99.90
5011;DHT22;2524;54.364;10.072;2022-12-07T14:56:45;2.50;99.90
5011;DHT22;2524;54.364;10.072;2022-12-07T14:59:14;2.50;99.90
5011;DHT22;2524;54.364;10.072;2022-12-07T15:01:40;2.50;99.90
5011;DHT22;2524;54.364;10.072;2022-12-07T15:04:05;2.40;99.90
5011;DHT22;2524;54.364;10.072;2022-12-07T15:06:31;2.50;99.90
5011;DHT22;2524;54.364;10.072;2022-12-07T15:08:57;2.50;99.90
5011;DHT22;2524;54.364;10.072;2022-12-07T15:11:22;2.40;99.90
5011;DHT22;2524;54.364;10.072;2022-12-07T15:13:48;2.40;99.90
5011;DHT22;2524;54.364;10.072;2022-12-07T15:16:32;2.50;99.90
5011;DHT22;2524;54.364;10.072;2022-12-07T15:19:18;2.40;99.90
5011;DHT22;2524;54.364;10.072;2022-12-07T15:22:07;2.40;99.90
5011;DHT22;2524;54.364;10.072;2022-12-07T15:24:41;2.40;99.90
5011;DHT22;2524;54.364;10.072;2022-12-07T15:27:30;2.40;99.90
5011;DHT22;2524;54.364;10.072;2022-12-07T15:30:08;2.20;99.90
5011;DHT22;2524;54.364;10.072;2022-12-07T15:32:33;2.30;99.90
5011;DHT22;2524;54.364;10.072;2022-12-07T15:34:59;2.30;99.90
5011;DHT22;2524;54.364;10.072;2022-12-07T15:37:24;2.30;99.90
5011;DHT22;2524;54.364;10.072;2022-12-07T15:39:50;2.30;99.90
5011;DHT22;2524;54.364;10.072;2022-12-07T15:42:16;2.30;99.90
5011;DHT22;2524;54.364;10.072;2022-12-07T15:44:41;2.30;99.90
5011;DHT22;2524;54.364;10.072;2022-12-07T15:47:25;2.30;99.90
5011;DHT22;2524;54.364;10.072;2022-12-07T15:49:51;2.30;99.90
5011;DHT22;2524;54.364;10.072;2022-12-07T15:52:17;2.30;99.90
5011;DHT22;2524;54.364;10.072;2022-12-07T15:54:44;2.30;99.90
5011;DHT22;2524;54.364;10.072;2022-12-07T15:57:10;2.30;99.90
5011;DHT22;2524;54.364;10.072;2022-12-07T15:59:35;2.30;99.90
5011;DHT22;2524;54.364;10.072;2022-12-07T16:02:01;2.30;99.90
5011;DHT22;2524;54.364;10.072;2022-12-07T16:04:28;2.30;99.90
5011;DHT22;2524;54.364;10.072;2022-12-07T16:06:54;2.30;99.90
5011;DHT22;2524;54.364;10.072;2022-12-07T16:09:20;2.30;99.90
5011;DHT22;2524;54.364;10.072;2022-12-07T16:11:46;2.30;99.90
5011;DHT22;2524;54.364;10.072;2022-12-07T16:14:12;2.20;99.90
5011;DHT22;2524;54.364;10.072;2022-12-07T16:16:38;2.20;99.90
5011;DHT22;2524;54.364;10.072;2022-12-07T16:19:05;2.20;99.90
5011;DHT22;2524;54.364;10.072;2022-12-07T16:21:31;2.20;99.90
5011;DHT22;2524;54.364;10.072;2022-12-07T16:23:58;2.20;99.90
5011;DHT22;2524;54.364;10.072;2022-12-07T16:26:24;2.20;99.90
5011;DHT22;2524;54.364;10.072;2022-12-07T16:28:50;2.20;99.90
5011;DHT22;2524;54.364;10.072;2022-12-07T16:31:18;2.10;99.90
5011;DHT22;2524;54.364;10.072;2022-12-07T16:33:45;2.10;99.90
5011;DHT22;2524;54.364;10.072;2022-12-07T16:36:11;2.10;99.90
5011;DHT22;2524;54.364;10.072;2022-12-07T16:38:38;2.10;99.90
5011;DHT22;2524;54.364;10.072;2022-12-07T16:41:05;2.10;99.90
5011;DHT22;2524;54.364;10.072;2022-12-07T16:43:31;2.10;99.90
5011;DHT22;2524;54.364;10.072;2022-12-07T16:45:57;2.10;99.90
5011;DHT22;2524;54.364;10.072;2022-12-07T16:48:23;2.10;99.90
5011;DHT22;2524;54.364;10.072;2022-12-07T16:50:49;2.10;99.90
5011;DHT22;2524;54.364;10.072;2022-12-07T16:53:15;2.10;99.90
5011;DHT22;2524;54.364;10.072;2022-12-07T16:55:43;2.00;99.90
5011;DHT22;2524;54.364;10.072;2022-12-07T16:58:13;2.00;99.90
5011;DHT22;2524;54.364;10.072;2022-12-07T17:00:41;2.00;99.90
5011;DHT22;2524;54.364;10.072;2022-12-07T17:03:07;1.90;99.90
5011;DHT22;2524;54.364;10.072;2022-12-07T17:05:33;1.90;99.90
5011;DHT22;2524;54.364;10.072;2022-12-07T17:07:59;1.90;99.90
5011;DHT22;2524;54.364;10.072;2022-12-07T17:10:25;1.90;99.90
5011;DHT22;2524;54.364;10.072;2022-12-07T17:12:51;1.90;99.90
5011;DHT22;2524;54.364;10.072;2022-12-07T17:15:18;1.90;99.90
5011;DHT22;2524;54.364;10.072;2022-12-07T17:17:57;1.90;99.90
5011;DHT22;2524;54.364;10.072;2022-12-07T17:20:26;1.90;99.90
5011;DHT22;2524;54.364;10.072;2022-12-07T17:22:52;1.80;99.90
5011;DHT22;2524;54.364;10.072;2022-12-07T17:25:18;1.80;99.90
5011;DHT22;2524;54.364;10.072;2022-12-07T17:27:44;1.80;99.90
5011;DHT22;2524;54.364;10.072;2022-12-07T17:30:12;1.80;99.90
5011;DHT22;2524;54.364;10.072;2022-12-07T17:32:38;1.80;99.90
5011;DHT22;2524;54.364;10.072;2022-12-07T17:35:04;1.80;99.90
5011;DHT22;2524;54.364;10.072;2022-12-07T17:37:31;1.70;99.90
5011;DHT22;2524;54.364;10.072;2022-12-07T17:39:57;1.70;99.90
5011;DHT22;2524;54.364;10.072;2022-12-07T17:42:26;1.70;99.90
5011;DHT22;2524;54.364;10.072;2022-12-07T17:45:12;1.80;99.90
5011;DHT22;2524;54.364;10.072;2022-12-07T17:47:38;1.70;99.90
5011;DHT22;2524;54.364;10.072;2022-12-07T17:50:05;1.70;99.90
5011;DHT22;2524;54.364;10.072;2022-12-07T17:52:31;1.70;99.90
5011;DHT22;2524;54.364;10.072;2022-12-07T17:55:16;1.70;99.90
5011;DHT22;2524;54.364;10.072;2022-12-07T17:57:42;1.70;99.90
5011;DHT22;2524;54.364;10.072;2022-12-07T18:00:08;1.70;99.90
5011;DHT22;2524;54.364;10.072;2022-12-07T18:02:36;1.70;99.90
5011;DHT22;2524;54.364;10.072;2022-12-07T18:05:01;1.70;99.90
5011;DHT22;2524;54.364;10.072;2022-12-07T18:07:27;1.70;99.90
5011;DHT22;2524;54.364;10.072;2022-12-07T18:09:53;1.70;99.90
5011;DHT22;2524;54.364;10.072;2022-12-07T18:12:18;1.70;99.90
5011;DHT22;2524;54.364;10.072;2022-12-07T18:14:44;1.70;99.90
5011;DHT22;2524;54.364;10.072;2022-12-07T18:17:09;1.70;99.90
5011;DHT22;2524;54.364;10.072;2022-12-07T18:19:35;1.70;99.90
5011;DHT22;2524;54.364;10.072;2022-12-07T18:22:04;1.70;99.90
5011;DHT22;2524;54.364;10.072;2022-12-07T18:24:30;1.70;99.90
5011;DHT22;2524;54.364;10.072;2022-12-07T18:26:56;1.70;99.90
5011;DHT22;2524;54.364;10.072;2022-12-07T18:29:22;1.70;99.90
5011;DHT22;2524;54.364;10.072;2022-12-07T18:31:47;1.70;99.90
5011;DHT22;2524;54.364;10.072;2022-12-07T18:34:16;1.70;99.90
5011;DHT22;2524;54.364;10.072;2022-12-07T18:36:43;1.70;99.90
5011;DHT22;2524;54.364;10.072;2022-12-07T18:39:14;1.70;99.90
5011;DHT22;2524;54.364;10.072;2022-12-07T18:41:40;1.70;99.90